createdAt,value
2022-08-16T07:14:26.257Z,99.90
2022-08-16T07:16:59.003Z,99.90
2022-08-16T07:19:33.764Z,99.90
2022-08-16T07:22:37.569Z,99.90
2022-08-16T07:25:10.001Z,99.90
2022-08-16T07:27:39.357Z,99.90
2022-08-16T07:30:45.385Z,99.90
2022-08-16T07:33:07.894Z,99.90
2022-08-16T07:35:36.262Z,99.90
2022-08-16T07:38:07.406Z,99.90
2022-08-16T07:40:59.239Z,99.90
2022-08-16T07:43:29.338Z,99.90
2022-08-16T07:45:59.512Z,99.90
2022-08-16T07:48:30.155Z,99.90
2022-08-16T07:51:00.344Z,99.90
2022-08-16T07:53:34.838Z,99.90
2022-08-16T07:56:16.235Z,99.90
2022-08-16T07:58:48.843Z,99.90
2022-08-16T08:01:24.839Z,99.90
2022-08-16T08:03:56.839Z,99.90
2022-08-16T08:06:28.851Z,99.90
2022-08-16T08:08:59.466Z,99.90
2022-08-16T08:11:29.548Z,99.90
2022-08-16T08:14:03.040Z,99.90
2022-08-16T08:16:32.309Z,99.90
2022-08-16T08:19:02.845Z,99.90
2022-08-16T08:21:59.775Z,99.90
2022-08-16T08:24:31.622Z,99.90
2022-08-16T08:27:02.314Z,99.90
2022-08-16T08:29:37.744Z,99.90
2022-08-16T08:32:58.515Z,99.90
2022-08-16T08:35:03.294Z,99.90
2022-08-16T08:37:54.182Z,99.90
2022-08-16T08:40:26.677Z,99.90
2022-08-16T08:43:00.363Z,99.90
2022-08-16T08:45:47.368Z,99.90
2022-08-16T08:48:34.879Z,99.90
2022-08-16T08:51:05.088Z,99.90
2022-08-16T08:53:33.763Z,99.90
2022-08-16T08:56:22.635Z,99.90
2022-08-16T08:58:54.879Z,99.90
2022-08-16T09:01:36.567Z,99.90
2022-08-16T09:04:18.920Z,99.90
2022-08-16T09:06:47.186Z,99.90
2022-08-16T09:09:17.134Z,99.90
2022-08-16T09:11:53.479Z,99.90
2022-08-16T09:14:32.531Z,99.90
2022-08-16T09:17:11.367Z,99.90
2022-08-16T09:19:42.801Z,99.90
2022-08-16T09:22:19.744Z,99.90
2022-08-16T09:24:53.260Z,99.90
2022-08-16T09:27:25.346Z,99.90
2022-08-16T09:30:00.068Z,99.90
2022-08-16T09:32:31.307Z,99.90
2022-08-16T09:35:01.464Z,99.90
2022-08-16T09:37:36.685Z,99.90
2022-08-16T09:40:31.771Z,99.90
2022-08-16T09:42:59.296Z,99.90
2022-08-16T09:45:30.063Z,96.50
2022-08-16T09:47:59.737Z,93.30
2022-08-16T09:50:33.163Z,93.20
2022-08-16T09:53:15.580Z,92.60
2022-08-16T09:55:49.284Z,92.20
2022-08-16T09:58:40.721Z,89.00
2022-08-16T10:01:11.507Z,84.10
2022-08-16T10:04:02.556Z,88.10
2022-08-16T10:06:33.480Z,86.10
2022-08-16T10:09:05.003Z,81.90
2022-08-16T10:12:11.378Z,82.40
2022-08-16T10:14:47.588Z,75.10
2022-08-16T10:27:47.070Z,74.90
2022-08-16T10:30:25.848Z,73.00
2022-08-16T10:33:02.645Z,70.70
2022-08-16T10:35:33.329Z,70.10
2022-08-16T10:38:01.914Z,69.40
2022-08-16T10:45:38.119Z,70.70
2022-08-16T10:48:27.769Z,63.50
2022-08-16T10:50:58.822Z,62.10
2022-08-16T10:53:32.505Z,62.20
2022-08-16T10:56:03.322Z,62.50
2022-08-16T10:58:34.961Z,62.10
2022-08-16T11:14:35.454Z,59.60
2022-08-16T11:17:10.731Z,58.00
2022-08-16T11:22:47.552Z,56.70
2022-08-16T11:28:09.861Z,57.00
2022-08-16T11:30:39.851Z,56.50
2022-08-16T11:33:10.843Z,57.00
2022-08-16T11:35:44.719Z,56.80
2022-08-16T11:38:51.992Z,57.70
2022-08-16T11:41:17.677Z,56.60
2022-08-16T11:43:47.565Z,56.60
2022-08-16T11:46:43.039Z,55.10
2022-08-16T11:49:13.214Z,54.20
2022-08-16T11:51:43.991Z,54.10
2022-08-16T11:54:20.806Z,53.90
2022-08-16T11:56:52.487Z,53.20
2022-08-16T11:59:28.630Z,54.70
2022-08-16T12:01:59.771Z,54.40
2022-08-16T12:04:31.279Z,52.90
2022-08-16T12:12:02.867Z,53.90
2022-08-16T12:14:35.420Z,52.40
2022-08-16T12:17:08.308Z,52.90
2022-08-16T12:19:38.278Z,53.80
2022-08-16T12:22:18.687Z,53.60
2022-08-16T12:24:50.967Z,53.10
2022-08-16T12:27:24.088Z,53.90
2022-08-16T12:29:54.787Z,52.50
2022-08-16T12:32:38.039Z,52.50
2022-08-16T12:35:19.559Z,51.10
2022-08-16T12:37:56.705Z,50.60
2022-08-16T12:40:35.778Z,51.10
2022-08-16T12:43:06.697Z,49.80
2022-08-16T12:45:38.102Z,47.90
2022-08-16T12:48:32.679Z,49.10
2022-08-16T12:51:04.296Z,47.90
2022-08-16T12:56:10.697Z,50.10
2022-08-16T12:58:48.814Z,47.40
2022-08-16T13:01:22.978Z,49.30
2022-08-16T13:04:12.223Z,48.50
2022-08-16T13:06:50.121Z,48.30
2022-08-16T13:09:26.541Z,49.50
2022-08-16T13:12:04.176Z,48.30
2022-08-16T13:14:42.372Z,49.20
2022-08-16T13:17:31.933Z,48.80
2022-08-16T13:20:07.537Z,49.90
2022-08-16T13:22:44.237Z,50.40
2022-08-16T13:25:20.699Z,47.00
2022-08-16T13:28:01.817Z,48.00
2022-08-16T13:30:41.263Z,46.90
2022-08-16T13:33:17.043Z,47.30
2022-08-16T13:35:56.112Z,46.50
2022-08-16T13:38:44.292Z,45.60
2022-08-16T13:41:15.376Z,44.70
2022-08-16T13:43:43.756Z,44.50
2022-08-16T13:46:26.284Z,44.10
2022-08-16T13:48:57.464Z,44.50
2022-08-16T13:51:29.367Z,42.70
2022-08-16T13:54:03.759Z,43.50
2022-08-16T13:56:39.537Z,44.50
2022-08-16T13:59:20.919Z,43.60
2022-08-16T14:01:54.456Z,44.40
2022-08-16T14:04:27.092Z,44.50
2022-08-16T14:06:57.100Z,44.60
2022-08-16T14:09:28.398Z,42.60
2022-08-16T14:11:57.352Z,42.70
2022-08-16T14:14:28.483Z,41.90
2022-08-16T14:17:05.215Z,41.20
2022-08-16T14:19:44.806Z,41.70
2022-08-16T14:22:30.434Z,41.20
2022-08-16T14:25:03.251Z,42.60
2022-08-16T14:27:35.849Z,42.40
2022-08-16T14:30:11.261Z,41.30
2022-08-16T14:32:49.620Z,41.30
2022-08-16T14:35:21.976Z,43.00
2022-08-16T14:38:05.841Z,41.40
2022-08-16T14:40:35.732Z,39.80
2022-08-16T14:43:06.971Z,40.10
2022-08-16T14:45:36.870Z,40.30
2022-08-16T14:48:05.745Z,40.00
2022-08-16T14:50:34.350Z,40.40
2022-08-16T14:53:05.409Z,41.20
2022-08-16T14:55:36.945Z,40.50
2022-08-16T14:58:18.777Z,40.60
2022-08-16T15:00:50.498Z,39.70
2022-08-16T15:03:23.310Z,39.70
2022-08-16T15:05:54.091Z,39.90
2022-08-16T15:08:36.817Z,42.60
2022-08-16T15:11:07.986Z,37.80
2022-08-16T15:13:36.639Z,38.80
2022-08-16T15:16:06.050Z,38.60
2022-08-16T15:18:34.532Z,38.30
2022-08-16T15:21:04.957Z,40.50
2022-08-16T15:23:34.707Z,42.00
2022-08-16T15:26:08.389Z,41.60
2022-08-16T15:28:38.849Z,42.40
2022-08-16T15:31:12.951Z,41.70
2022-08-16T15:33:50.032Z,41.40
2022-08-16T15:36:21.278Z,42.20
2022-08-16T15:39:02.178Z,42.60
2022-08-16T15:42:01.064Z,43.20
2022-08-16T15:44:44.786Z,41.50
2022-08-16T15:47:21.612Z,42.00
2022-08-16T15:49:55.522Z,41.30
2022-08-16T15:52:29.773Z,44.30
2022-08-16T15:55:00.236Z,43.40
2022-08-16T15:57:30.210Z,44.20
2022-08-16T16:00:04.746Z,43.50
2022-08-16T16:02:55.837Z,43.80
2022-08-16T16:05:33.709Z,44.90
2022-08-16T16:08:11.871Z,45.80
2022-08-16T16:10:43.452Z,45.50
2022-08-16T16:13:13.500Z,45.70
2022-08-16T16:15:45.813Z,46.00
2022-08-16T16:18:15.887Z,46.60
2022-08-16T16:20:47.541Z,45.20
2022-08-16T16:23:17.908Z,45.00
2022-08-16T16:25:47.095Z,44.60
2022-08-16T16:29:05.157Z,46.20
2022-08-16T16:31:13.183Z,45.10
2022-08-16T16:33:44.468Z,44.50
2022-08-16T16:36:16.801Z,45.90
2022-08-16T16:38:47.563Z,47.40
2022-08-16T16:41:20.474Z,47.10
2022-08-16T16:43:53.525Z,44.90
2022-08-16T16:46:38.939Z,45.50
2022-08-16T16:49:12.394Z,46.10
2022-08-16T16:51:44.584Z,46.60
2022-08-16T16:54:27.769Z,46.50
2022-08-16T16:56:56.751Z,46.40
2022-08-16T16:59:28.326Z,46.00
2022-08-16T17:02:38.585Z,46.40
2022-08-16T17:04:48.312Z,46.30
2022-08-16T17:07:17.225Z,47.20
2022-08-16T17:09:46.890Z,46.50
2022-08-16T17:12:25.479Z,47.40
2022-08-16T17:15:03.512Z,47.90
2022-08-16T17:17:36.228Z,48.60
2022-08-16T17:20:24.566Z,49.80
2022-08-16T17:22:55.674Z,50.00
2022-08-16T17:25:25.092Z,49.90
2022-08-16T17:27:53.322Z,49.70
2022-08-16T17:30:29.289Z,50.50
2022-08-16T17:33:02.268Z,50.80
2022-08-16T17:35:34.975Z,51.10
2022-08-16T17:38:06.344Z,51.70
2022-08-16T17:43:27.530Z,52.10
2022-08-16T17:45:56.957Z,53.10
2022-08-16T17:48:27.255Z,53.60
2022-08-16T17:50:55.410Z,53.60
2022-08-16T17:53:23.746Z,53.70
2022-08-16T17:55:54.434Z,53.80
2022-08-16T17:58:24.373Z,54.30
2022-08-16T18:00:55.974Z,54.50
2022-08-16T18:04:06.962Z,55.30
2022-08-16T18:06:18.550Z,55.90
2022-08-16T18:08:48.392Z,56.40
2022-08-16T18:11:18.266Z,56.60
2022-08-16T18:13:50.338Z,57.00
2022-08-16T18:26:32.810Z,57.60
2022-08-16T18:29:01.405Z,62.10
2022-08-16T18:31:35.234Z,63.30
2022-08-16T18:34:08.645Z,64.80
2022-08-16T18:36:37.495Z,65.90
2022-08-16T18:39:06.911Z,68.40
2022-08-16T18:41:37.116Z,69.40
2022-08-16T18:44:25.358Z,70.40
2022-08-16T18:46:56.667Z,73.80
2022-08-16T18:49:26.360Z,76.80
2022-08-16T18:51:58.107Z,79.30
2022-08-16T18:54:28.082Z,80.90
2022-08-16T18:56:58.220Z,83.00
2022-08-16T18:59:28.614Z,85.60
2022-08-16T19:02:00.187Z,88.00
2022-08-16T19:04:56.291Z,90.50
2022-08-16T19:07:31.283Z,93.10
2022-08-16T19:10:00.894Z,95.20
2022-08-16T19:12:38.501Z,97.50
2022-08-16T19:15:15.688Z,98.10
2022-08-16T19:17:45.389Z,98.70
2022-08-16T19:20:17.419Z,99.60
2022-08-16T19:23:06.279Z,99.90
2022-08-16T19:25:46.680Z,99.90
2022-08-16T19:28:33.340Z,99.90
2022-08-16T19:31:11.372Z,99.90
2022-08-16T19:33:40.385Z,99.90
2022-08-16T19:36:11.741Z,99.90
2022-08-16T19:39:04.364Z,99.90
2022-08-16T19:41:37.864Z,99.90
2022-08-16T19:44:08.960Z,99.90
2022-08-16T19:46:38.389Z,99.90
2022-08-16T19:49:07.852Z,99.90
2022-08-16T19:51:38.691Z,99.90
2022-08-16T19:54:10.910Z,99.90
2022-08-16T19:56:40.673Z,99.90
2022-08-16T19:59:20.590Z,99.90
2022-08-16T20:01:53.158Z,99.90
2022-08-16T20:04:22.463Z,99.90
2022-08-16T20:06:55.663Z,99.90
2022-08-16T20:09:24.566Z,99.90
2022-08-16T20:11:55.530Z,99.90
2022-08-16T20:14:25.436Z,99.90
2022-08-16T20:16:56.607Z,99.90
2022-08-16T20:19:27.298Z,99.90
2022-08-16T20:22:01.642Z,99.90
2022-08-16T20:24:35.330Z,99.90
2022-08-16T20:27:06.138Z,99.90
2022-08-16T20:29:35.185Z,99.90
2022-08-16T20:32:03.526Z,99.90
2022-08-16T20:34:34.092Z,99.90
2022-08-16T20:37:05.101Z,99.90
2022-08-16T20:39:34.155Z,99.90
2022-08-16T20:42:04.293Z,99.90
2022-08-16T20:44:33.724Z,99.90
2022-08-16T20:47:03.216Z,99.90
2022-08-16T20:49:31.609Z,99.90
2022-08-16T20:52:00.106Z,99.90
2022-08-16T20:54:31.323Z,99.90
2022-08-16T20:56:59.799Z,99.90
2022-08-16T20:59:28.501Z,99.90
2022-08-16T22:45:39.100Z,99.90
2022-08-16T23:16:33.384Z,99.90
2022-08-16T23:26:46.980Z,99.90
